Time;durP1;ratioP1;P1;durP2;ratioP2;P2;SDS_P1;SDS_P2;PMS_P1;PMS_P2;Temp;Humidity;BMP_temperature;BMP_pressure;BME280_temperature;BME280_humidity;BME280_pressure;Samples;Min_cycle;Max_cycle;Signal;HPM_P1;HPM_P2
2023/06/16 19:02:56;;;;;;;;;7.67;7.67;;;;;17.61;79.56;98013.75;4211008;28;107893;-76
2023/06/16 19:05:25;;;;;;;;;6.00;4.00;;;;;17.34;80.17;97989.16;4786477;28;102677;-74
2023/06/16 19:07:53;;;;;;;;;6.33;5.00;;;;;17.33;81.45;98002.03;4806845;28;103364;-74
2023/06/16 19:10:20;;;;;;;;;10.00;9.00;;;;;17.17;81.95;98018.50;4849716;28;101675;-75
2023/06/16 19:12:49;;;;;;;;;14.00;12.50;;;;;16.97;84.16;98018.31;4852845;28;103545;-75
2023/06/16 19:15:20;;;;;;;;;10.75;10.75;;;;;16.99;82.14;98025.16;4855475;28;101949;-75
2023/06/16 19:17:47;;;;;;;;;12.25;12.00;;;;;16.82;84.00;98014.31;4870137;28;101909;-75
2023/06/16 19:20:17;;;;;;;;;22.50;20.50;;;;;16.72;82.37;98019.66;4852302;28;101553;-75
2023/06/16 19:22:45;;;;;;;;;15.00;13.00;;;;;16.69;86.36;98025.63;4851230;28;107009;-75
2023/06/16 19:25:12;;;;;;;;;14.25;14.00;;;;;16.53;87.71;98034.66;4852368;28;101915;-75
2023/06/16 19:27:40;;;;;;;;;20.75;18.25;;;;;16.39;88.86;98038.84;4855194;28;101728;-74
2023/06/16 19:30:16;;;;;;;;;19.00;18.00;;;;;16.31;90.01;98036.53;4868504;28;101864;-75
2023/06/16 19:32:57;;;;;;;;;17.75;16.00;;;;;16.40;87.42;98037.75;4838236;28;106873;-75
2023/06/16 19:35:47;;;;;;;;;13.50;13.25;;;;;16.54;86.04;98047.22;4851492;28;102311;-74
2023/06/16 19:38:30;;;;;;;;;15.75;15.50;;;;;16.57;87.36;98043.97;4853596;28;101783;-74
2023/06/16 19:41:04;;;;;;;;;13.75;12.25;;;;;16.56;87.46;98056.00;4853115;28;101658;-74
2023/06/16 19:43:43;;;;;;;;;16.00;15.00;;;;;16.45;84.61;98040.56;4854743;28;103675;-74
2023/06/16 19:46:25;;;;;;;;;19.25;17.25;;;;;16.68;81.20;98054.00;4854360;28;101713;-74
2023/06/16 19:49:10;;;;;;;;;17.25;16.25;;;;;16.73;81.00;98032.22;4854023;28;101582;-74
2023/06/16 19:51:52;;;;;;;;;15.00;13.00;;;;;17.04;79.32;98054.44;4856288;28;101588;-75
2023/06/16 19:54:56;;;;;;;;;17.50;16.75;;;;;17.22;75.44;98057.66;4852632;28;106659;-74
2023/06/16 19:57:28;;;;;;;;;14.75;14.50;;;;;17.35;74.76;98056.41;4854733;28;105002;-75
2023/06/16 19:59:55;;;;;;;;;16.50;15.25;;;;;17.46;73.16;98062.81;4838283;29;101992;-74
2023/06/16 20:02:22;;;;;;;;;14.50;14.00;;;;;17.56;72.06;98055.53;4850035;28;102061;-75
2023/06/16 20:04:51;;;;;;;;;12.50;12.00;;;;;17.66;73.67;98061.13;4849024;28;103377;-75
2023/06/16 20:07:20;;;;;;;;;16.00;16.00;;;;;17.61;71.81;98061.06;4848421;28;102533;-75
2023/06/16 20:09:47;;;;;;;;;15.75;14.75;;;;;17.68;71.85;98056.22;4850727;28;101570;-75
2023/06/16 20:12:14;;;;;;;;;14.00;13.25;;;;;17.69;72.36;98066.09;4849178;28;101679;-75
2023/06/16 20:14:41;;;;;;;;;11.00;10.75;;;;;17.64;71.39;98055.09;4847148;28;103610;-75
2023/06/16 20:17:09;;;;;;;;;16.50;15.75;;;;;17.61;73.13;98066.53;4847698;28;102348;-75
2023/06/16 20:19:38;;;;;;;;;13.25;13.00;;;;;17.57;73.13;98046.25;4850792;28;101944;-75
2023/06/16 20:22:06;;;;;;;;;12.50;12.25;;;;;17.59;73.67;98057.78;4852261;28;101658;-75
2023/06/16 20:24:33;;;;;;;;;14.75;14.75;;;;;17.20;74.95;98042.59;4852884;28;103498;-76
2023/06/16 20:27:00;;;;;;;;;15.25;14.25;;;;;17.29;75.23;98073.84;4853556;28;102667;-74
2023/06/16 20:29:31;;;;;;;;;20.00;18.00;;;;;16.99;76.77;98074.31;4851700;28;101960;-74
2023/06/16 20:32:02;;;;;;;;;18.00;17.00;;;;;16.92;79.06;98074.53;4853215;28;101745;-74
2023/06/16 20:34:30;;;;;;;;;19.00;18.00;;;;;16.67;82.01;98087.00;4853731;28;103345;-78
2023/06/16 20:37:00;;;;;;;;;19.25;18.75;;;;;16.48;83.56;98083.69;4853759;28;101413;-75
2023/06/16 20:39:29;;;;;;;;;14.50;14.00;;;;;16.35;86.23;98076.69;4853274;28;102987;-77
2023/06/16 20:41:58;;;;;;;;;15.00;14.75;;;;;16.35;87.19;98081.34;4855881;28;101656;-76
2023/06/16 20:44:25;;;;;;;;;14.00;13.00;;;;;16.22;88.74;98089.88;4851717;28;104770;-76
2023/06/16 20:46:53;;;;;;;;;16.50;15.50;;;;;16.16;91.29;98079.97;4819848;28;102898;-75
2023/06/16 20:49:22;;;;;;;;;18.25;16.75;;;;;16.10;94.52;98080.97;4810151;28;102744;-75
2023/06/16 20:51:53;;;;;;;;;19.00;17.25;;;;;15.91;95.65;98075.75;4811711;28;102850;-75
2023/06/16 20:54:21;;;;;;;;;15.75;15.25;;;;;15.98;95.50;98084.63;4809593;28;104201;-75
2023/06/16 20:56:49;;;;;;;;;17.25;15.75;;;;;15.97;95.75;98080.22;4813841;28;102681;-76
2023/06/16 20:59:18;;;;;;;;;16.25;15.00;;;;;15.77;95.01;98065.41;4808760;28;102828;-75
2023/06/16 21:01:46;;;;;;;;;19.00;17.50;;;;;15.68;96.19;98067.72;4810977;28;102773;-77
2023/06/16 21:04:17;;;;;;;;;18.50;16.00;;;;;15.71;98.37;98086.34;4850401;28;106079;-75
2023/06/16 21:06:45;;;;;;;;;17.75;13.25;;;;;15.64;97.95;98074.75;4855486;28;101529;-76
2023/06/16 21:09:12;;;;;;;;;13.75;13.25;;;;;15.33;97.80;98037.09;4855352;28;101644;-76
2023/06/16 21:11:40;;;;;;;;;12.25;11.00;;;;;15.58;98.61;98082.00;4855666;29;101706;-76
2023/06/16 21:14:09;;;;;;;;;9.00;7.50;;;;;15.54;97.88;98078.13;4853706;28;103381;-75
2023/06/16 21:16:36;;;;;;;;;8.25;8.25;;;;;15.51;98.59;98088.69;4852735;28;101745;-75
2023/06/16 21:19:04;;;;;;;;;8.75;8.75;;;;;15.50;99.71;98095.16;4853514;28;103537;-75
2023/06/16 21:21:32;;;;;;;;;8.00;7.00;;;;;15.46;100.00;98096.75;4857553;29;101819;-75
2023/06/16 21:27:46;;;;;;;;;6.25;6.25;;;;;15.39;100.00;98090.63;4853562;28;101539;-75
2023/06/16 21:30:13;;;;;;;;;6.00;5.50;;;;;15.29;100.00;98079.53;4853363;28;101601;-75
2023/06/16 21:32:40;;;;;;;;;4.50;4.00;;;;;15.12;100.00;98072.16;4854411;29;103410;-74
2023/06/16 21:35:09;;;;;;;;;5.00;4.25;;;;;15.08;100.00;98081.84;4850815;28;103517;-74
2023/06/16 21:37:37;;;;;;;;;4.00;3.75;;;;;15.01;100.00;98073.00;4854278;28;102148;-75
2023/06/16 21:40:07;;;;;;;;;3.25;3.00;;;;;14.98;100.00;98065.34;4851602;28;102211;-74
2023/06/16 21:42:39;;;;;;;;;6.00;6.00;;;;;14.89;100.00;98065.97;4853581;28;102287;-75
2023/06/16 21:45:08;;;;;;;;;7.75;7.00;;;;;14.77;100.00;98068.69;4855131;28;103369;-74
2023/06/16 21:47:36;;;;;;;;;8.50;8.00;;;;;14.68;100.00;98056.53;4854055;28;104907;-75
2023/06/16 21:50:05;;;;;;;;;5.00;5.00;;;;;14.74;100.00;98055.56;4855417;28;101867;-75
2023/06/16 21:52:32;;;;;;;;;5.50;5.00;;;;;14.68;100.00;98053.81;4855223;28;101481;-75
2023/06/16 21:55:00;;;;;;;;;6.00;5.00;;;;;14.73;100.00;98059.34;4851688;28;103450;-75
2023/06/16 21:57:28;;;;;;;;;10.00;10.00;;;;;14.68;100.00;98045.66;4856385;28;102085;-75
2023/06/16 21:59:56;;;;;;;;;7.50;6.50;;;;;14.73;100.00;98053.91;4871878;28;101661;-75
2023/06/16 22:02:24;;;;;;;;;17.00;16.00;;;;;14.53;100.00;98053.50;4856894;28;101704;-75
2023/06/16 22:04:51;;;;;;;;;12.25;11.00;;;;;14.45;100.00;98041.13;4854507;28;108461;-75
2023/06/16 22:07:20;;;;;;;;;16.00;14.25;;;;;14.42;100.00;98041.56;4853760;28;101633;-75
2023/06/16 22:09:48;;;;;;;;;14.75;13.00;;;;;14.43;100.00;98054.09;4854529;28;101437;-75
2023/06/16 22:12:16;;;;;;;;;15.50;14.50;;;;;14.41;100.00;98047.28;4857935;29;106341;-75
2023/06/16 22:14:46;;;;;;;;;13.25;12.00;;;;;14.62;100.00;98052.91;4856843;28;103543;-75
2023/06/16 22:17:14;;;;;;;;;9.00;8.50;;;;;14.77;100.00;98052.38;4856912;28;101523;-75
2023/06/16 22:19:42;;;;;;;;;7.50;6.00;;;;;14.85;100.00;98046.56;4855780;28;101596;-75
2023/06/16 22:22:10;;;;;;;;;5.75;5.75;;;;;14.93;100.00;98048.91;4856797;28;101621;-75
2023/06/16 22:24:40;;;;;;;;;5.75;5.00;;;;;14.90;100.00;98043.94;4855453;28;103528;-75
2023/06/16 22:27:09;;;;;;;;;9.00;9.00;;;;;14.77;100.00;98032.50;4855169;28;101833;-75
2023/06/16 22:29:39;;;;;;;;;13.00;12.00;;;;;14.64;100.00;98030.88;4854234;28;106744;-75
2023/06/16 22:32:07;;;;;;;;;10.25;9.25;;;;;14.68;100.00;98034.75;4855624;28;101591;-75
2023/06/16 22:34:34;;;;;;;;;7.75;7.25;;;;;14.73;100.00;98032.16;4853869;28;103294;-76
2023/06/16 22:37:02;;;;;;;;;7.00;6.50;;;;;14.75;100.00;98030.03;4857997;28;101485;-75
2023/06/16 22:39:30;;;;;;;;;5.75;4.50;;;;;14.76;100.00;98031.69;4857706;28;101596;-75
2023/06/16 22:41:57;;;;;;;;;7.25;6.25;;;;;14.78;100.00;98048.56;4853157;28;105039;-75
2023/06/16 22:44:25;;;;;;;;;6.75;6.75;;;;;14.71;100.00;98039.75;4856988;28;103359;-75
2023/06/16 22:46:56;;;;;;;;;7.25;7.25;;;;;14.79;100.00;98042.06;4856929;28;101553;-75
2023/06/16 22:49:23;;;;;;;;;8.25;7.75;;;;;14.82;100.00;98040.75;4855876;28;101789;-75
2023/06/16 22:51:56;;;;;;;;;6.00;6.00;;;;;14.82;100.00;98040.75;4856221;28;101660;-76
2023/06/16 22:54:25;;;;;;;;;7.00;6.50;;;;;14.68;100.00;98004.81;4854558;28;103285;-75
2023/06/16 22:56:54;;;;;;;;;5.75;5.75;;;;;14.83;100.00;98029.63;4856001;28;101362;-75
2023/06/16 22:59:21;;;;;;;;;5.00;5.00;;;;;14.87;100.00;98025.34;4853691;28;101687;-75
2023/06/16 23:01:49;;;;;;;;;7.00;6.50;;;;;14.85;100.00;98022.06;4855928;28;101949;-75
2023/06/16 23:04:17;;;;;;;;;8.25;7.50;;;;;14.83;100.00;98018.75;4852063;28;103344;-75
2023/06/16 23:06:47;;;;;;;;;8.50;8.00;;;;;14.81;100.00;98012.72;4856532;28;102355;-75
2023/06/16 23:09:15;;;;;;;;;10.00;8.25;;;;;14.79;100.00;98014.84;4855967;28;101763;-75
2023/06/16 23:11:42;;;;;;;;;10.25;9.50;;;;;14.77;100.00;98019.72;4857253;28;101638;-75
2023/06/16 23:14:09;;;;;;;;;13.00;13.00;;;;;14.70;100.00;98019.03;4853842;28;103280;-76
2023/06/16 23:16:38;;;;;;;;;14.50;13.00;;;;;14.72;100.00;98019.63;4856010;28;101680;-76
2023/06/16 23:19:05;;;;;;;;;13.75;13.00;;;;;14.73;100.00;98016.66;4855685;28;101919;-75
2023/06/16 23:21:32;;;;;;;;;10.50;10.00;;;;;14.74;100.00;98022.91;4859894;28;101465;-75
2023/06/16 23:23:59;;;;;;;;;13.50;13.00;;;;;14.60;100.00;98007.94;4856652;28;108297;-74
2023/06/16 23:26:28;;;;;;;;;15.50;14.75;;;;;14.64;100.00;98011.81;4855543;28;101683;-75
2023/06/16 23:28:57;;;;;;;;;14.75;13.75;;;;;14.60;100.00;97999.78;4857006;28;101456;-75
2023/06/16 23:31:24;;;;;;;;;10.75;9.00;;;;;14.67;100.00;98012.19;4856943;28;102155;-75
2023/06/16 23:33:51;;;;;;;;;11.25;11.00;;;;;14.65;100.00;98013.47;4867545;28;103343;-75
2023/06/16 23:36:20;;;;;;;;;10.75;10.50;;;;;14.55;100.00;98005.09;4856166;28;101513;-75
2023/06/16 23:38:48;;;;;;;;;12.75;12.00;;;;;14.58;100.00;98010.09;4852060;28;101615;-75
2023/06/16 23:41:16;;;;;;;;;11.00;10.75;;;;;14.50;100.00;98005.81;4851455;28;101540;-75
2023/06/16 23:43:43;;;;;;;;;13.00;11.50;;;;;14.48;100.00;98010.69;4856630;28;103474;-75
2023/06/16 23:46:10;;;;;;;;;12.25;12.00;;;;;14.61;100.00;98024.03;4856401;28;104077;-75
2023/06/16 23:48:38;;;;;;;;;10.00;9.50;;;;;14.53;100.00;98008.09;4857073;28;101887;-75
2023/06/16 23:51:05;;;;;;;;;8.00;7.75;;;;;14.55;100.00;98010.53;4853423;28;102744;-76
2023/06/16 23:53:32;;;;;;;;;7.25;7.25;;;;;14.50;100.00;98007.75;4854318;29;103791;-75
2023/06/16 23:56:01;;;;;;;;;7.50;7.25;;;;;14.57;100.00;98027.47;4855705;28;101269;-75
2023/06/16 23:58:28;;;;;;;;;7.50;7.50;;;;;14.46;100.00;98010.09;4853037;28;102508;-75
